createdAt,value
2016-08-25T00:00:25.979Z,0
2016-08-25T00:01:25.284Z,0
2016-08-25T00:02:26.058Z,0
2016-08-25T00:03:28.394Z,0
2016-08-25T00:04:26.722Z,0
2016-08-25T00:05:27.138Z,0
2016-08-25T00:06:26.082Z,0
2016-08-25T00:07:26.742Z,0
2016-08-25T00:08:26.042Z,0
2016-08-25T00:09:26.059Z,0
2016-08-25T00:10:26.066Z,0
2016-08-25T00:11:26.778Z,0
2016-08-25T00:12:25.390Z,0
2016-08-25T00:13:26.795Z,0
2016-08-25T00:14:25.486Z,0
2016-08-25T00:15:27.512Z,0
2016-08-25T00:16:26.108Z,0
2016-08-25T00:17:26.976Z,0
2016-08-25T00:18:26.065Z,0
2016-08-25T00:19:27.560Z,0
2016-08-25T00:20:26.148Z,0
2016-08-25T00:21:26.152Z,0
2016-08-25T00:22:26.163Z,0
2016-08-25T00:23:26.171Z,0
2016-08-25T00:24:26.876Z,0
2016-08-25T00:25:26.281Z,0
2016-08-25T00:26:26.896Z,0
2016-08-25T00:27:25.495Z,0
2016-08-25T00:28:26.912Z,0
2016-08-25T00:29:26.154Z,0
2016-08-25T00:30:26.925Z,0
2016-08-25T00:31:26.950Z,0
2016-08-25T00:32:26.947Z,0
2016-08-25T00:33:26.948Z,0
2016-08-25T00:34:25.548Z,0
2016-08-25T00:35:26.964Z,0
2016-08-25T00:36:26.270Z,0
2016-08-25T00:37:25.568Z,0
2016-08-25T00:38:27.608Z,0
2016-08-25T00:39:27.008Z,0
2016-08-25T00:40:26.140Z,0
2016-08-25T00:41:27.738Z,0
2016-08-25T00:42:27.022Z,0
2016-08-25T00:43:27.751Z,0
2016-08-25T00:44:27.036Z,0
2016-08-25T00:45:27.048Z,0
2016-08-25T00:46:26.348Z,0
2016-08-25T00:47:27.777Z,0
2016-08-25T00:48:26.412Z,0
2016-08-25T00:49:27.823Z,0
2016-08-25T00:50:25.723Z,0
2016-08-25T00:51:28.294Z,0
2016-08-25T00:52:26.394Z,0
2016-08-25T00:53:27.608Z,0
2016-08-25T00:54:27.123Z,0
2016-08-25T00:55:25.709Z,0
2016-08-25T00:56:25.722Z,0
2016-08-25T00:57:26.442Z,0
2016-08-25T00:58:26.453Z,0
2016-08-25T00:59:25.753Z,0
2016-08-25T01:00:27.198Z,0
2016-08-25T01:01:27.190Z,0
2016-08-25T01:02:26.522Z,0
2016-08-25T01:03:26.534Z,0
2016-08-25T01:04:27.697Z,0
2016-08-25T01:05:27.199Z,0
2016-08-25T01:06:25.799Z,0
2016-08-25T01:07:27.222Z,0
2016-08-25T01:08:26.528Z,0
2016-08-25T01:09:26.527Z,0
2016-08-25T01:10:27.244Z,0
2016-08-25T01:11:27.247Z,0
2016-08-25T01:12:27.970Z,0
2016-08-25T01:13:25.863Z,0
2016-08-25T01:14:26.616Z,0
2016-08-25T01:15:27.747Z,0
2016-08-25T01:16:26.576Z,0
2016-08-25T01:17:27.300Z,0
2016-08-25T01:18:27.306Z,0
2016-08-25T01:19:27.325Z,0
2016-08-25T01:20:25.912Z,0
2016-08-25T01:21:26.629Z,0
2016-08-25T01:22:28.043Z,0
2016-08-25T01:23:25.936Z,0
2016-08-25T01:24:28.651Z,0
2016-08-25T01:25:28.076Z,0
2016-08-25T01:26:27.162Z,0
2016-08-25T01:27:27.374Z,0
2016-08-25T01:28:26.677Z,0
2016-08-25T01:29:27.393Z,0
2016-08-25T01:30:25.983Z,0
2016-08-25T01:31:26.709Z,0
2016-08-25T01:32:26.011Z,0
2016-08-25T01:33:26.721Z,0
2016-08-25T01:34:28.141Z,0
2016-08-25T01:35:27.790Z,0
2016-08-25T01:36:26.795Z,0
2016-08-25T01:37:28.979Z,0
2016-08-25T01:38:27.467Z,0
2016-08-25T01:39:26.767Z,0
2016-08-25T01:40:28.189Z,0
2016-08-25T01:41:28.200Z,0
2016-08-25T01:42:27.500Z,0
2016-08-25T01:43:26.791Z,0
2016-08-25T01:44:26.805Z,0
2016-08-25T01:45:26.104Z,0
2016-08-25T01:46:28.530Z,0
2016-08-25T01:47:27.888Z,0
2016-08-25T01:48:27.842Z,0
2016-08-25T01:49:27.600Z,0
2016-08-25T01:50:26.197Z,0
2016-08-25T01:51:27.579Z,0
2016-08-25T01:52:27.577Z,0
2016-08-25T01:53:27.587Z,0
2016-08-25T01:54:27.584Z,0
2016-08-25T01:55:27.603Z,0
2016-08-25T01:56:27.609Z,0
2016-08-25T01:57:29.171Z,0
2016-08-25T01:58:26.209Z,0
2016-08-25T01:59:27.637Z,0
2016-08-25T02:00:27.638Z,0
2016-08-25T02:01:28.260Z,0
2016-08-25T02:02:27.654Z,0
2016-08-25T02:03:27.721Z,0
2016-08-25T02:04:26.966Z,0
2016-08-25T02:05:27.069Z,0
2016-08-25T02:06:26.284Z,0
2016-08-25T02:07:26.988Z,0
2016-08-25T02:08:29.176Z,0
2016-08-25T02:09:27.007Z,0
2016-08-25T02:10:26.302Z,0
2016-08-25T02:11:26.310Z,0
2016-08-25T02:12:28.346Z,0
2016-08-25T02:13:26.325Z,0
2016-08-25T02:14:27.043Z,0
2016-08-25T02:15:27.052Z,0
2016-08-25T02:16:27.822Z,0
2016-08-25T02:17:28.482Z,0
2016-08-25T02:18:26.366Z,0
2016-08-25T02:19:27.788Z,0
2016-08-25T02:20:27.797Z,0
2016-08-25T02:21:26.596Z,0
2016-08-25T02:22:27.108Z,0
2016-08-25T02:23:28.116Z,0
2016-08-25T02:24:26.414Z,0
2016-08-25T02:25:27.852Z,0
2016-08-25T02:26:26.433Z,0
2016-08-25T02:27:27.144Z,0
2016-08-25T02:28:26.456Z,0
2016-08-25T02:29:26.455Z,0
2016-08-25T02:30:27.880Z,0
2016-08-25T02:31:26.480Z,0
2016-08-25T02:32:28.923Z,0
2016-08-25T02:33:27.201Z,0
2016-08-25T02:34:28.104Z,0
2016-08-25T02:35:27.205Z,0
2016-08-25T02:36:26.522Z,0
2016-08-25T02:37:27.233Z,0
2016-08-25T02:38:26.529Z,0
2016-08-25T02:39:27.954Z,0
2016-08-25T02:40:27.249Z,0
2016-08-25T02:41:27.307Z,0
2016-08-25T02:42:27.273Z,0
2016-08-25T02:43:28.981Z,0
2016-08-25T02:44:27.285Z,0
2016-08-25T02:45:27.429Z,0
2016-08-25T02:46:28.000Z,0
2016-08-25T02:47:28.823Z,0
2016-08-25T02:48:27.311Z,0
2016-08-25T02:49:27.373Z,0
2016-08-25T02:50:27.395Z,0
2016-08-25T02:51:28.751Z,0
2016-08-25T02:52:27.391Z,0
2016-08-25T02:53:28.060Z,0
2016-08-25T02:54:28.527Z,0
2016-08-25T02:55:28.078Z,0
2016-08-25T02:56:27.826Z,0
2016-08-25T02:57:28.082Z,0
2016-08-25T02:58:26.690Z,0
2016-08-25T02:59:27.399Z,0
2016-08-25T03:00:27.418Z,0
2016-08-25T03:01:27.414Z,0
2016-08-25T03:02:27.431Z,0
2016-08-25T03:03:28.135Z,0
2016-08-25T03:04:27.438Z,0
2016-08-25T03:05:27.543Z,0
2016-08-25T03:06:28.169Z,0
2016-08-25T03:07:28.163Z,0
2016-08-25T03:08:28.225Z,0
2016-08-25T03:09:28.751Z,0
2016-08-25T03:10:28.192Z,0
2016-08-25T03:11:28.192Z,0
2016-08-25T03:12:27.518Z,0
2016-08-25T03:13:28.216Z,0
2016-08-25T03:14:27.535Z,0
2016-08-25T03:15:26.813Z,0
2016-08-25T03:16:26.116Z,0
2016-08-25T03:17:27.543Z,0
2016-08-25T03:18:27.547Z,0
2016-08-25T03:19:28.968Z,0
2016-08-25T03:20:29.236Z,0
2016-08-25T03:21:28.286Z,0
2016-08-25T03:22:27.677Z,0
2016-08-25T03:23:27.587Z,0
2016-08-25T03:24:28.309Z,0
2016-08-25T03:25:27.600Z,0
2016-08-25T03:26:26.906Z,0
2016-08-25T03:27:26.916Z,0
2016-08-25T03:28:27.623Z,0
2016-08-25T03:29:28.347Z,0
2016-08-25T03:30:26.932Z,0
2016-08-25T03:31:29.206Z,0
2016-08-25T03:32:28.364Z,0
2016-08-25T03:33:28.374Z,0
2016-08-25T03:34:27.672Z,0
2016-08-25T03:35:29.094Z,0
2016-08-25T03:36:28.393Z,0
2016-08-25T03:37:27.694Z,0
2016-08-25T03:38:28.410Z,0
2016-08-25T03:39:27.717Z,0
2016-08-25T03:40:28.422Z,0
2016-08-25T03:41:27.747Z,0
2016-08-25T03:42:28.695Z,0
2016-08-25T03:43:27.740Z,0
2016-08-25T03:44:29.992Z,0
2016-08-25T03:45:27.052Z,0
2016-08-25T03:46:28.481Z,0
2016-08-25T03:47:28.483Z,0
2016-08-25T03:48:27.789Z,0
2016-08-25T03:49:27.791Z,0
2016-08-25T03:50:27.812Z,0
2016-08-25T03:51:27.865Z,0
2016-08-25T03:52:27.820Z,0
2016-08-25T03:53:27.971Z,0
2016-08-25T03:54:28.533Z,0
2016-08-25T03:55:29.953Z,0
2016-08-25T03:56:27.843Z,0
2016-08-25T03:57:27.862Z,0
2016-08-25T03:58:26.444Z,0
2016-08-25T03:59:28.576Z,0
2016-08-25T04:00:27.172Z,0
2016-08-25T04:01:28.605Z,0
2016-08-25T04:02:28.598Z,0
2016-08-25T04:03:27.897Z,0
2016-08-25T04:04:30.307Z,0
2016-08-25T04:05:27.207Z,0
2016-08-25T04:06:29.699Z,0
2016-08-25T04:07:27.929Z,0
2016-08-25T04:08:28.746Z,0
2016-08-25T04:09:28.653Z,0
2016-08-25T04:10:27.247Z,0
2016-08-25T04:11:27.962Z,0
2016-08-25T04:12:28.674Z,0
2016-08-25T04:13:29.398Z,0
2016-08-25T04:14:27.982Z,0
2016-08-25T04:15:27.993Z,0
2016-08-25T04:16:28.716Z,0
2016-08-25T04:17:29.065Z,0
2016-08-25T04:18:28.721Z,0
2016-08-25T04:19:30.399Z,0
2016-08-25T04:20:28.034Z,0
2016-08-25T04:21:28.037Z,0
2016-08-25T04:22:28.756Z,0
2016-08-25T04:23:28.053Z,0
2016-08-25T04:24:27.357Z,0
2016-08-25T04:25:27.369Z,0
2016-08-25T04:26:29.772Z,0
2016-08-25T04:27:27.379Z,0
2016-08-25T04:28:28.543Z,0
2016-08-25T04:29:27.403Z,0
2016-08-25T04:30:30.575Z,0
2016-08-25T04:31:28.815Z,0
2016-08-25T04:32:29.541Z,0
2016-08-25T04:33:28.140Z,0
2016-08-25T04:34:29.550Z,0
2016-08-25T04:35:29.569Z,0
2016-08-25T04:36:28.866Z,0
2016-08-25T04:37:29.573Z,0
2016-08-25T04:38:27.463Z,0
2016-08-25T04:39:28.880Z,5
2016-08-25T04:40:28.184Z,5
2016-08-25T04:41:28.194Z,5
2016-08-25T04:42:27.493Z,5
2016-08-25T04:43:28.920Z,5
2016-08-25T04:44:28.924Z,5
2016-08-25T04:45:28.240Z,5
2016-08-25T04:46:28.941Z,5
2016-08-25T04:47:28.948Z,5
2016-08-25T04:48:29.683Z,5
2016-08-25T04:49:29.672Z,5
2016-08-25T04:50:28.217Z,5
2016-08-25T04:51:27.618Z,5
2016-08-25T04:52:30.829Z,10
2016-08-25T04:53:28.290Z,10
2016-08-25T04:54:28.790Z,10
2016-08-25T04:55:27.594Z,10
2016-08-25T04:56:28.311Z,10
2016-08-25T04:57:29.068Z,10
2016-08-25T04:58:28.335Z,10
2016-08-25T04:59:27.624Z,10
2016-08-25T05:00:26.933Z,10
2016-08-25T05:01:30.016Z,10
2016-08-25T05:02:28.360Z,10
2016-08-25T05:03:29.887Z,15
2016-08-25T05:04:29.082Z,15
2016-08-25T05:05:28.211Z,15
2016-08-25T05:06:27.676Z,15
2016-08-25T05:07:26.985Z,15
2016-08-25T05:08:28.402Z,15
2016-08-25T05:09:29.115Z,15
2016-08-25T05:10:27.766Z,15
2016-08-25T05:11:29.131Z,15
2016-08-25T05:12:27.825Z,20
2016-08-25T05:13:28.448Z,20
2016-08-25T05:14:29.880Z,20
2016-08-25T05:15:29.165Z,20
2016-08-25T05:16:28.488Z,20
2016-08-25T05:17:27.772Z,20
2016-08-25T05:18:28.490Z,20
2016-08-25T05:19:27.789Z,25
2016-08-25T05:20:29.215Z,30
2016-08-25T05:21:29.227Z,70
2016-08-25T05:22:29.930Z,150
2016-08-25T05:23:27.829Z,165
2016-08-25T05:24:29.238Z,95
2016-08-25T05:25:29.996Z,60
2016-08-25T05:26:27.839Z,70
2016-08-25T05:27:30.717Z,90
2016-08-25T05:28:28.566Z,140
2016-08-25T05:29:29.276Z,110
2016-08-25T05:30:28.584Z,60
2016-08-25T05:31:28.593Z,45
2016-08-25T05:32:28.596Z,45
2016-08-25T05:33:27.902Z,45
2016-08-25T05:34:27.910Z,45
2016-08-25T05:35:29.331Z,40
2016-08-25T05:36:30.047Z,40
2016-08-25T05:37:29.344Z,35
2016-08-25T05:38:28.665Z,35
2016-08-25T05:39:30.116Z,35
2016-08-25T05:40:29.380Z,40
2016-08-25T05:41:29.394Z,40
2016-08-25T05:42:30.097Z,40
2016-08-25T05:43:28.706Z,45
2016-08-25T05:44:28.697Z,55
2016-08-25T05:45:29.414Z,50
2016-08-25T05:46:29.419Z,60
2016-08-25T05:47:29.582Z,70
2016-08-25T05:48:28.728Z,55
2016-08-25T05:49:30.348Z,50
2016-08-25T05:50:28.037Z,50
2016-08-25T05:51:29.559Z,45
2016-08-25T05:52:29.468Z,40
2016-08-25T05:53:28.922Z,40
2016-08-25T05:54:28.823Z,40
2016-08-25T05:55:28.076Z,50
2016-08-25T05:56:28.790Z,50
2016-08-25T05:57:29.506Z,40
2016-08-25T05:58:28.115Z,40
2016-08-25T05:59:29.519Z,45
2016-08-25T06:00:28.127Z,55
2016-08-25T06:01:28.125Z,55
2016-08-25T06:02:29.545Z,50
2016-08-25T06:03:29.560Z,45
2016-08-25T06:04:28.150Z,40
2016-08-25T06:05:29.568Z,40
2016-08-25T06:06:28.889Z,45
2016-08-25T06:07:29.597Z,45
2016-08-25T06:08:29.609Z,45
2016-08-25T06:09:29.669Z,45
2016-08-25T06:10:28.956Z,45
2016-08-25T06:11:30.281Z,45
2016-08-25T06:12:30.340Z,45
2016-08-25T06:13:29.441Z,45
2016-08-25T06:14:28.942Z,45
2016-08-25T06:15:29.649Z,45
2016-08-25T06:16:28.971Z,55
2016-08-25T06:17:28.960Z,65
2016-08-25T06:18:29.680Z,70
2016-08-25T06:19:28.979Z,65
2016-08-25T06:20:28.277Z,70
2016-08-25T06:21:28.991Z,160
2016-08-25T06:22:30.285Z,260
2016-08-25T06:23:28.300Z,210
2016-08-25T06:24:29.018Z,175
2016-08-25T06:25:29.029Z,250
2016-08-25T06:26:30.447Z,235
2016-08-25T06:27:29.039Z,120
2016-08-25T06:28:29.812Z,155
2016-08-25T06:29:29.763Z,190
2016-08-25T06:30:29.062Z,345
2016-08-25T06:31:29.785Z,595
2016-08-25T06:32:28.378Z,625
2016-08-25T06:33:29.045Z,470
2016-08-25T06:34:30.519Z,370
2016-08-25T06:35:28.258Z,230
2016-08-25T06:36:29.127Z,375
2016-08-25T06:37:30.391Z,725
2016-08-25T06:38:29.849Z,905
2016-08-25T06:39:28.444Z,930
2016-08-25T06:40:29.870Z,990
2016-08-25T06:41:29.880Z,1045
2016-08-25T06:42:29.183Z,1055
2016-08-25T06:43:28.538Z,1075
2016-08-25T06:44:28.688Z,1090
2016-08-25T06:45:29.204Z,1090
2016-08-25T06:46:28.618Z,1095
2016-08-25T06:47:28.527Z,1095
2016-08-25T06:48:29.909Z,1070
2016-08-25T06:49:30.681Z,1065
2016-08-25T06:50:29.267Z,1090
2016-08-25T06:51:30.137Z,1095
2016-08-25T06:52:28.635Z,1090
2016-08-25T06:53:30.776Z,1110
2016-08-25T06:54:30.728Z,1130
2016-08-25T06:55:29.385Z,1120
2016-08-25T06:56:30.767Z,1065
2016-08-25T06:57:30.844Z,1025
2016-08-25T06:58:30.779Z,1005
2016-08-25T06:59:30.091Z,1040
2016-08-25T07:00:30.143Z,1115
2016-08-25T07:01:29.400Z,1130
2016-08-25T07:02:30.849Z,1160
2016-08-25T07:03:28.715Z,1225
2016-08-25T07:04:29.484Z,1275
2016-08-25T07:05:29.466Z,910
2016-08-25T07:06:30.886Z,330
2016-08-25T07:07:28.773Z,70
2016-08-25T07:08:31.290Z,55
2016-08-25T07:09:30.201Z,50
2016-08-25T07:10:30.415Z,50
2016-08-25T07:11:30.986Z,50
2016-08-25T07:12:28.819Z,50
2016-08-25T07:13:28.827Z,50
2016-08-25T07:14:28.186Z,50
2016-08-25T07:15:28.849Z,50
2016-08-25T07:16:30.271Z,50
2016-08-25T07:17:29.576Z,50
2016-08-25T07:18:29.593Z,50
2016-08-25T07:19:30.110Z,50
2016-08-25T07:20:30.314Z,50
2016-08-25T07:21:30.326Z,50
2016-08-25T07:22:28.977Z,50
2016-08-25T07:23:30.548Z,50
2016-08-25T07:24:31.068Z,50
2016-08-25T07:25:29.644Z,50
2016-08-25T07:26:29.662Z,50
2016-08-25T07:27:32.947Z,50
2016-08-25T07:28:28.277Z,50
2016-08-25T07:29:28.277Z,50
2016-08-25T07:30:31.003Z,50
2016-08-25T07:31:28.996Z,50
2016-08-25T07:32:31.696Z,50
2016-08-25T07:33:30.430Z,50
2016-08-25T07:34:31.175Z,50
2016-08-25T07:35:30.450Z,50
2016-08-25T07:36:29.748Z,50
2016-08-25T07:37:29.756Z,50
2016-08-25T07:38:31.191Z,50
2016-08-25T07:39:31.193Z,50
2016-08-25T07:40:30.498Z,50
2016-08-25T07:41:30.903Z,50
2016-08-25T07:42:29.806Z,50
2016-08-25T07:43:29.914Z,50
2016-08-25T07:44:29.124Z,50
2016-08-25T07:45:32.144Z,50
2016-08-25T07:46:29.133Z,50
2016-08-25T07:47:29.853Z,50
2016-08-25T07:48:29.151Z,50
2016-08-25T07:49:29.866Z,50
2016-08-25T07:50:30.598Z,50
2016-08-25T07:51:29.928Z,50
2016-08-25T07:52:31.351Z,50
2016-08-25T07:53:29.290Z,50
2016-08-25T07:54:32.321Z,50
2016-08-25T07:55:30.632Z,50
2016-08-25T07:56:31.478Z,50
2016-08-25T07:57:30.742Z,50
2016-08-25T07:58:29.943Z,50
2016-08-25T07:59:30.652Z,50
2016-08-25T08:00:30.009Z,50
2016-08-25T08:01:30.681Z,50
2016-08-25T08:02:31.396Z,50
2016-08-25T08:03:31.396Z,50
2016-08-25T08:04:30.702Z,50
2016-08-25T08:05:31.817Z,50
2016-08-25T08:06:30.069Z,50
2016-08-25T08:07:31.685Z,50
2016-08-25T08:08:30.074Z,50
2016-08-25T08:09:29.329Z,50
2016-08-25T08:10:29.346Z,50
2016-08-25T08:11:29.361Z,50
2016-08-25T08:12:30.070Z,50
2016-08-25T08:13:30.776Z,50
2016-08-25T08:14:29.377Z,50
2016-08-25T08:15:31.660Z,50
2016-08-25T08:16:28.687Z,50
2016-08-25T08:17:30.155Z,50
2016-08-25T08:18:31.124Z,50
2016-08-25T08:19:31.540Z,50
2016-08-25T08:20:31.759Z,50
2016-08-25T08:21:31.188Z,50
2016-08-25T08:23:30.866Z,50
2016-08-25T08:24:30.171Z,50
2016-08-25T08:25:30.947Z,50
2016-08-25T08:26:30.182Z,50
2016-08-25T08:27:32.027Z,50
2016-08-25T08:28:30.203Z,50
2016-08-25T08:29:32.798Z,50
2016-08-25T08:30:30.926Z,50
2016-08-25T08:31:31.927Z,50
2016-08-25T08:32:31.046Z,50
2016-08-25T08:33:30.249Z,50
2016-08-25T08:34:28.839Z,50
2016-08-25T08:35:28.844Z,50
2016-08-25T08:36:30.985Z,55
2016-08-25T08:37:30.328Z,55
2016-08-25T08:38:30.996Z,55
2016-08-25T08:39:30.995Z,60
2016-08-25T08:40:30.042Z,60
2016-08-25T08:41:29.654Z,70
2016-08-25T08:42:31.362Z,80
2016-08-25T08:43:30.327Z,90
2016-08-25T08:44:31.046Z,95
2016-08-25T08:45:30.341Z,95
2016-08-25T08:46:29.648Z,95
2016-08-25T08:47:31.074Z,95
2016-08-25T08:48:30.367Z,100
2016-08-25T08:49:29.723Z,95
2016-08-25T08:50:29.688Z,95
2016-08-25T08:51:32.320Z,95
2016-08-25T08:52:30.411Z,95
2016-08-25T08:53:30.956Z,95
2016-08-25T08:54:30.420Z,95
2016-08-25T08:55:30.431Z,95
2016-08-25T08:56:31.857Z,95
2016-08-25T08:57:31.911Z,95
2016-08-25T08:58:30.527Z,95
2016-08-25T08:59:29.820Z,95
2016-08-25T09:00:29.056Z,95
2016-08-25T09:01:31.906Z,90
2016-08-25T09:02:31.679Z,90
2016-08-25T09:03:30.507Z,90
2016-08-25T09:04:32.982Z,90
2016-08-25T09:05:30.515Z,90
2016-08-25T09:06:32.285Z,90
2016-08-25T09:07:30.578Z,90
2016-08-25T09:08:30.538Z,90
2016-08-25T09:09:32.033Z,90
2016-08-25T09:10:31.970Z,90
2016-08-25T09:11:30.566Z,90
2016-08-25T09:12:30.572Z,90
2016-08-25T09:13:31.292Z,90
2016-08-25T09:14:31.303Z,90
2016-08-25T09:15:31.308Z,90
2016-08-25T09:16:30.631Z,90
2016-08-25T09:17:32.648Z,90
2016-08-25T09:18:29.932Z,90
2016-08-25T09:19:31.340Z,90
2016-08-25T09:20:29.991Z,90
2016-08-25T09:21:29.944Z,90
2016-08-25T09:22:31.365Z,90
2016-08-25T09:23:32.083Z,90
2016-08-25T09:24:44.146Z,90
2016-08-25T09:25:29.987Z,90
2016-08-25T09:26:30.940Z,90
2016-08-25T09:27:30.000Z,90
2016-08-25T09:28:32.279Z,90
2016-08-25T09:29:31.425Z,90
2016-08-25T09:30:31.456Z,90
2016-08-25T09:31:31.444Z,90
2016-08-25T09:32:30.749Z,90
2016-08-25T09:33:30.051Z,90
2016-08-25T09:34:31.622Z,90
2016-08-25T09:35:30.832Z,85
2016-08-25T09:36:32.193Z,85
2016-08-25T09:37:31.061Z,85
2016-08-25T09:38:31.511Z,85
2016-08-25T09:39:30.116Z,85
2016-08-25T09:40:30.863Z,85
2016-08-25T09:41:31.532Z,85
2016-08-25T09:42:30.834Z,85
2016-08-25T09:43:30.148Z,85
2016-08-25T09:44:31.557Z,85
2016-08-25T09:45:30.870Z,85
2016-08-25T09:46:31.578Z,85
2016-08-25T09:47:29.465Z,90
2016-08-25T09:48:30.231Z,90
2016-08-25T09:49:30.186Z,90
2016-08-25T09:50:31.649Z,85
2016-08-25T09:51:32.324Z,85
2016-08-25T09:52:31.629Z,85
2016-08-25T09:53:30.973Z,85
2016-08-25T09:54:30.982Z,85
2016-08-25T09:55:30.950Z,80
2016-08-25T09:56:31.677Z,80
2016-08-25T09:57:30.974Z,80
2016-08-25T09:58:32.401Z,80
2016-08-25T09:59:32.670Z,80
2016-08-25T10:00:32.473Z,80
2016-08-25T10:01:31.442Z,80
2016-08-25T10:02:31.718Z,80
2016-08-25T10:03:31.017Z,80
2016-08-25T10:04:32.444Z,80
2016-08-25T10:05:30.334Z,80
2016-08-25T10:06:31.146Z,80
2016-08-25T10:07:31.814Z,80
2016-08-25T10:08:31.058Z,80
2016-08-25T10:09:30.418Z,80
2016-08-25T10:10:31.076Z,80
2016-08-25T10:11:31.794Z,80
2016-08-25T10:12:32.353Z,80
2016-08-25T10:13:31.102Z,80
2016-08-25T10:14:33.760Z,80
2016-08-25T10:15:31.824Z,75
2016-08-25T10:16:30.419Z,75
2016-08-25T10:17:31.843Z,70
2016-08-25T10:18:31.850Z,70
2016-08-25T10:19:30.443Z,70
2016-08-25T10:20:32.772Z,70
2016-08-25T10:21:32.633Z,70
2016-08-25T10:22:31.930Z,70
2016-08-25T10:23:31.796Z,70
2016-08-25T10:24:31.193Z,70
2016-08-25T10:25:33.183Z,70
2016-08-25T10:26:30.504Z,70
2016-08-25T10:27:31.935Z,70
2016-08-25T10:28:30.526Z,70
2016-08-25T10:29:31.237Z,70
2016-08-25T10:30:30.543Z,70
2016-08-25T10:31:31.963Z,70
2016-08-25T10:32:30.551Z,70
2016-08-25T10:33:30.568Z,70
2016-08-25T10:34:32.295Z,70
2016-08-25T10:35:31.298Z,70
2016-08-25T10:36:30.588Z,70
2016-08-25T10:37:30.602Z,70
2016-08-25T10:38:32.107Z,70
2016-08-25T10:39:32.071Z,70
2016-08-25T10:40:32.050Z,70
2016-08-25T10:41:30.598Z,70
2016-08-25T10:42:32.764Z,70
2016-08-25T10:43:30.658Z,70
2016-08-25T10:44:32.799Z,65
2016-08-25T10:45:30.724Z,65
2016-08-25T10:46:31.382Z,70
2016-08-25T10:47:30.712Z,65
2016-08-25T10:48:32.105Z,65
2016-08-25T10:49:32.258Z,65
2016-08-25T10:50:30.721Z,65
2016-08-25T10:51:30.764Z,65
2016-08-25T10:52:30.740Z,65
2016-08-25T10:53:30.740Z,65
2016-08-25T10:54:32.158Z,65
2016-08-25T10:55:31.617Z,65
2016-08-25T10:56:32.890Z,65
2016-08-25T10:57:30.067Z,65
2016-08-25T10:58:32.857Z,65
2016-08-25T10:59:32.247Z,65
2016-08-25T11:00:31.504Z,65
2016-08-25T11:01:32.222Z,65
2016-08-25T11:02:30.114Z,65
2016-08-25T11:03:31.580Z,65
2016-08-25T11:04:32.399Z,65
2016-08-25T11:05:31.590Z,65
2016-08-25T11:06:31.560Z,65
2016-08-25T11:07:30.866Z,65
2016-08-25T11:08:30.882Z,65
2016-08-25T11:09:32.290Z,65
2016-08-25T11:10:31.598Z,65
2016-08-25T11:11:31.501Z,65
2016-08-25T11:12:30.908Z,65
2016-08-25T11:13:32.822Z,65
2016-08-25T11:14:31.620Z,65
2016-08-25T11:15:32.353Z,65
2016-08-25T11:16:33.055Z,65
2016-08-25T11:17:31.646Z,65
2016-08-25T11:18:32.368Z,60
2016-08-25T11:19:32.378Z,60
2016-08-25T11:20:31.814Z,60
2016-08-25T11:21:31.735Z,60
2016-08-25T11:22:32.449Z,60
2016-08-25T11:23:31.041Z,60
2016-08-25T11:24:33.172Z,60
2016-08-25T11:25:31.732Z,60
2016-08-25T11:26:32.435Z,60
2016-08-25T11:27:31.781Z,60
2016-08-25T11:28:32.466Z,60
2016-08-25T11:29:33.171Z,60
2016-08-25T11:30:32.470Z,60
2016-08-25T11:31:32.576Z,60
2016-08-25T11:32:31.068Z,60
2016-08-25T11:33:33.875Z,60
2016-08-25T11:34:31.843Z,60
2016-08-25T11:35:32.515Z,60
2016-08-25T11:36:33.226Z,60
2016-08-25T11:37:32.581Z,60
2016-08-25T11:38:31.880Z,60
2016-08-25T11:39:31.134Z,60
2016-08-25T11:40:31.139Z,60
2016-08-25T11:41:32.584Z,60
2016-08-25T11:42:33.483Z,60
2016-08-25T11:43:31.929Z,55
2016-08-25T11:44:33.424Z,60
2016-08-25T11:45:31.335Z,60
2016-08-25T11:46:32.600Z,60
2016-08-25T11:47:31.910Z,60
2016-08-25T11:48:31.925Z,60
2016-08-25T11:49:31.920Z,60
2016-08-25T11:50:31.947Z,60
2016-08-25T11:51:32.657Z,60
2016-08-25T11:52:31.257Z,55
2016-08-25T11:53:33.370Z,55
2016-08-25T11:54:31.973Z,55
2016-08-25T11:55:33.480Z,55
2016-08-25T11:56:32.685Z,55
2016-08-25T11:57:32.598Z,55
2016-08-25T11:58:31.299Z,55
2016-08-25T11:59:32.057Z,55
2016-08-25T12:00:32.076Z,55
2016-08-25T12:01:32.191Z,55
2016-08-25T12:02:32.088Z,55
2016-08-25T12:03:31.341Z,55
2016-08-25T12:04:32.810Z,55
2016-08-25T12:05:32.069Z,55
2016-08-25T12:06:33.886Z,55
2016-08-25T12:07:31.374Z,55
2016-08-25T12:08:34.727Z,50
2016-08-25T12:09:32.145Z,50
2016-08-25T12:10:31.404Z,50
2016-08-25T12:11:32.832Z,50
2016-08-25T12:12:32.133Z,50
2016-08-25T12:13:30.718Z,50
2016-08-25T12:14:32.197Z,50
2016-08-25T12:15:32.149Z,50
2016-08-25T12:16:31.452Z,50
2016-08-25T12:17:30.750Z,50
2016-08-25T12:18:32.188Z,50
2016-08-25T12:19:32.898Z,50
2016-08-25T12:20:33.160Z,50
2016-08-25T12:21:31.538Z,50
2016-08-25T12:22:32.211Z,50
2016-08-25T12:23:31.564Z,50
2016-08-25T12:24:32.932Z,50
2016-08-25T12:25:31.529Z,50
2016-08-25T12:26:32.250Z,50
2016-08-25T12:27:32.253Z,45
2016-08-25T12:28:33.110Z,45
2016-08-25T12:29:33.701Z,45
2016-08-25T12:30:32.432Z,45
2016-08-25T12:31:32.998Z,45
2016-08-25T12:32:33.093Z,45
2016-08-25T12:33:33.011Z,45
2016-08-25T12:34:31.699Z,45
2016-08-25T12:35:33.078Z,45
2016-08-25T12:36:33.085Z,45
2016-08-25T12:37:31.627Z,45
2016-08-25T12:38:31.702Z,45
2016-08-25T12:39:32.355Z,45
2016-08-25T12:40:32.360Z,45
2016-08-25T12:41:34.055Z,45
2016-08-25T12:42:33.794Z,45
2016-08-25T12:43:33.328Z,45
2016-08-25T12:44:33.161Z,45
2016-08-25T12:45:33.327Z,45
2016-08-25T12:46:33.835Z,45
2016-08-25T12:47:33.137Z,45
2016-08-25T12:48:31.775Z,45
2016-08-25T12:49:33.858Z,40
2016-08-25T12:50:33.163Z,40
2016-08-25T12:51:33.167Z,40
2016-08-25T12:52:34.913Z,40
2016-08-25T12:53:33.193Z,40
2016-08-25T12:54:33.543Z,40
2016-08-25T12:55:33.202Z,40
2016-08-25T12:56:34.154Z,40
2016-08-25T12:57:33.929Z,40
2016-08-25T12:58:31.109Z,40
2016-08-25T12:59:33.333Z,40
2016-08-25T13:00:33.267Z,40
2016-08-25T13:01:32.554Z,40
2016-08-25T13:02:33.975Z,40
2016-08-25T13:03:32.632Z,40
2016-08-25T13:04:33.281Z,40
2016-08-25T13:05:34.076Z,40
2016-08-25T13:06:33.303Z,40
2016-08-25T13:07:32.598Z,40
2016-08-25T13:08:32.606Z,40
2016-08-25T13:09:32.625Z,40
2016-08-25T13:10:32.626Z,40
2016-08-25T13:11:31.927Z,40
2016-08-25T13:12:32.703Z,40
2016-08-25T13:13:32.654Z,40
2016-08-25T13:14:32.660Z,40
2016-08-25T13:15:33.377Z,40
2016-08-25T13:16:34.493Z,40
2016-08-25T13:17:33.401Z,40
2016-08-25T13:18:34.292Z,40
2016-08-25T13:19:33.427Z,40
2016-08-25T13:20:32.719Z,40
2016-08-25T13:21:32.017Z,40
2016-08-25T13:22:32.736Z,40
2016-08-25T13:23:32.739Z,40
2016-08-25T13:24:32.748Z,40
2016-08-25T13:25:33.472Z,40
2016-08-25T13:26:31.351Z,40
2016-08-25T13:27:33.379Z,40
2016-08-25T13:28:33.502Z,40
2016-08-25T13:29:34.719Z,40
2016-08-25T13:30:33.555Z,40
2016-08-25T13:31:32.106Z,40
2016-08-25T13:32:32.822Z,40
2016-08-25T13:33:33.537Z,40
2016-08-25T13:34:32.884Z,40
2016-08-25T13:35:32.156Z,40
2016-08-25T13:36:33.561Z,40
2016-08-25T13:37:32.859Z,40
2016-08-25T13:38:33.744Z,40
2016-08-25T13:39:32.886Z,40
2016-08-25T13:40:35.045Z,40
2016-08-25T13:41:31.499Z,40
2016-08-25T13:42:33.616Z,40
2016-08-25T13:43:32.913Z,40
2016-08-25T13:44:33.647Z,40
2016-08-25T13:45:32.982Z,40
2016-08-25T13:46:32.287Z,40
2016-08-25T13:47:32.244Z,40
2016-08-25T13:48:32.972Z,40
2016-08-25T13:49:33.219Z,40
2016-08-25T13:50:32.273Z,40
2016-08-25T13:51:34.637Z,40
2016-08-25T13:52:32.998Z,40
2016-08-25T13:53:34.416Z,40
2016-08-25T13:54:33.731Z,40
2016-08-25T13:55:33.728Z,40
2016-08-25T13:56:33.133Z,40
2016-08-25T13:57:34.454Z,40
2016-08-25T13:58:33.055Z,40
2016-08-25T13:59:32.346Z,40
2016-08-25T14:00:33.116Z,40
2016-08-25T14:01:33.124Z,40
2016-08-25T14:02:35.502Z,40
2016-08-25T14:03:33.093Z,40
2016-08-25T14:04:33.246Z,40
2016-08-25T14:05:34.977Z,40
2016-08-25T14:06:34.532Z,40
2016-08-25T14:07:32.468Z,40
2016-08-25T14:08:33.848Z,40
2016-08-25T14:09:31.731Z,40
2016-08-25T14:10:33.866Z,40
2016-08-25T14:11:33.160Z,40
2016-08-25T14:12:32.466Z,40
2016-08-25T14:13:36.324Z,40
2016-08-25T14:14:33.904Z,40
2016-08-25T14:15:33.250Z,40
2016-08-25T14:16:33.919Z,40
2016-08-25T14:17:33.923Z,40
2016-08-25T14:18:33.222Z,40
2016-08-25T14:19:33.943Z,40
2016-08-25T14:20:34.708Z,40
2016-08-25T14:21:33.300Z,40
2016-08-25T14:22:33.262Z,40
2016-08-25T14:23:32.613Z,40
2016-08-25T14:24:33.793Z,40